sensor_id;sensor_type;location;lat;lon;timestamp;pressure;altitude;pressure_sealevel;temperature;humidity
21730;BME280;11027;51.030;13.812;2023-07-29T00:02:05;99553.69;;;21.84;74.67
21730;BME280;11027;51.030;13.812;2023-07-29T00:04:30;99552.25;;;21.81;74.55
21730;BME280;11027;51.030;13.812;2023-07-29T00:06:56;99554.22;;;21.81;74.59
21730;BME280;11027;51.030;13.812;2023-07-29T00:09:21;99556.72;;;21.82;74.84
21730;BME280;11027;51.030;13.812;2023-07-29T00:11:46;99555.88;;;21.82;74.74
21730;BME280;11027;51.030;13.812;2023-07-29T00:14:12;99552.25;;;21.81;74.74
21730;BME280;11027;51.030;13.812;2023-07-29T00:16:37;99551.69;;;21.79;75.16
21730;BME280;11027;51.030;13.812;2023-07-29T00:19:02;99545.88;;;21.75;75.24
21730;BME280;11027;51.030;13.812;2023-07-29T00:21:28;99551.13;;;21.72;75.23
21730;BME280;11027;51.030;13.812;2023-07-29T00:23:53;99541.41;;;21.69;75.30
21730;BME280;11027;51.030;13.812;2023-07-29T00:26:18;99535.88;;;21.69;75.30
21730;BME280;11027;51.030;13.812;2023-07-29T00:28:44;99539.72;;;21.68;75.10
21730;BME280;11027;51.030;13.812;2023-07-29T00:31:09;99541.94;;;21.66;75.46
21730;BME280;11027;51.030;13.812;2023-07-29T00:33:34;99541.13;;;21.66;75.58
21730;BME280;11027;51.030;13.812;2023-07-29T00:35:59;99539.16;;;21.66;76.08
21730;BME280;11027;51.030;13.812;2023-07-29T00:38:28;99540.81;;;21.62;76.04
21730;BME280;11027;51.030;13.812;2023-07-29T00:40:53;99539.97;;;21.62;76.28
21730;BME280;11027;51.030;13.812;2023-07-29T00:43:19;99536.34;;;21.61;76.32
21730;BME280;11027;51.030;13.812;2023-07-29T00:45:44;99536.34;;;21.56;76.64
21730;BME280;11027;51.030;13.812;2023-07-29T00:48:10;99527.47;;;21.54;76.62
21730;BME280;11027;51.030;13.812;2023-07-29T00:50:35;99532.97;;;21.49;76.68
21730;BME280;11027;51.030;13.812;2023-07-29T00:53:00;99538.22;;;21.45;77.25
21730;BME280;11027;51.030;13.812;2023-07-29T00:55:26;99531.28;;;21.43;77.06
21730;BME280;11027;51.030;13.812;2023-07-29T00:57:52;99532.34;;;21.42;77.38
21730;BME280;11027;51.030;13.812;2023-07-29T01:00:19;99532.94;;;21.44;77.25
21730;BME280;11027;51.030;13.812;2023-07-29T01:02:45;99535.13;;;21.42;77.21
21730;BME280;11027;51.030;13.812;2023-07-29T01:05:12;99532.31;;;21.36;77.51
21730;BME280;11027;51.030;13.812;2023-07-29T01:07:51;99520.66;;;21.34;77.73
21730;BME280;11027;51.030;13.812;2023-07-29T01:10:43;99528.41;;;21.32;77.64
21730;BME280;11027;51.030;13.812;2023-07-29T01:13:35;99530.03;;;21.28;77.57
21730;BME280;11027;51.030;13.812;2023-07-29T01:16:09;99523.38;;;21.24;77.33
21730;BME280;11027;51.030;13.812;2023-07-29T01:18:38;99528.88;;;21.19;77.21
21730;BME280;11027;51.030;13.812;2023-07-29T01:21:07;99524.44;;;21.18;77.21
21730;BME280;11027;51.030;13.812;2023-07-29T01:23:34;99520.56;;;21.19;77.03
21730;BME280;11027;51.030;13.812;2023-07-29T01:26:00;99521.97;;;21.22;77.04
21730;BME280;11027;51.030;13.812;2023-07-29T01:28:26;99513.41;;;21.23;76.75
21730;BME280;11027;51.030;13.812;2023-07-29T01:31:38;99516.19;;;21.23;77.19
21730;BME280;11027;51.030;13.812;2023-07-29T01:34:13;99512.84;;;21.21;76.86
21730;BME280;11027;51.030;13.812;2023-07-29T01:36:43;99518.88;;;21.18;77.15
21730;BME280;11027;51.030;13.812;2023-07-29T01:39:11;99513.34;;;21.13;77.81
21730;BME280;11027;51.030;13.812;2023-07-29T01:41:37;99514.69;;;21.10;77.55
21730;BME280;11027;51.030;13.812;2023-07-29T01:44:03;99515.47;;;21.06;77.97
21730;BME280;11027;51.030;13.812;2023-07-29T01:46:28;99508.81;;;21.02;78.17
21730;BME280;11027;51.030;13.812;2023-07-29T01:48:54;99513.78;;;21.00;78.46
21730;BME280;11027;51.030;13.812;2023-07-29T01:51:19;99508.50;;;20.98;78.34
21730;BME280;11027;51.030;13.812;2023-07-29T01:53:45;99510.94;;;20.89;78.69
21730;BME280;11027;51.030;13.812;2023-07-29T01:56:11;99518.91;;;20.81;79.19
21730;BME280;11027;51.030;13.812;2023-07-29T01:58:36;99511.94;;;20.78;79.42
21730;BME280;11027;51.030;13.812;2023-07-29T02:01:01;99515.75;;;20.72;79.84
21730;BME280;11027;51.030;13.812;2023-07-29T02:03:26;99514.88;;;20.66;80.03
21730;BME280;11027;51.030;13.812;2023-07-29T02:05:52;99515.09;;;20.60;80.30
21730;BME280;11027;51.030;13.812;2023-07-29T02:08:17;99518.38;;;20.56;80.87
21730;BME280;11027;51.030;13.812;2023-07-29T02:10:42;99514.19;;;20.54;80.80
21730;BME280;11027;51.030;13.812;2023-07-29T02:13:10;99516.66;;;20.50;80.57
21730;BME280;11027;51.030;13.812;2023-07-29T02:15:35;99520.50;;;20.49;80.87
21730;BME280;11027;51.030;13.812;2023-07-29T02:18:00;99523.81;;;20.46;80.73
21730;BME280;11027;51.030;13.812;2023-07-29T02:20:27;99516.03;;;20.43;81.04
21730;BME280;11027;51.030;13.812;2023-07-29T02:22:52;99509.09;;;20.41;81.54
21730;BME280;11027;51.030;13.812;2023-07-29T02:25:17;99515.41;;;20.36;81.90
21730;BME280;11027;51.030;13.812;2023-07-29T02:27:42;99514.81;;;20.34;82.04
21730;BME280;11027;51.030;13.812;2023-07-29T02:30:08;99515.91;;;20.33;82.18
21730;BME280;11027;51.030;13.812;2023-07-29T02:32:34;99519.19;;;20.30;82.26
21730;BME280;11027;51.030;13.812;2023-07-29T02:35:00;99516.38;;;20.25;82.41
21730;BME280;11027;51.030;13.812;2023-07-29T02:37:25;99524.13;;;20.23;82.44
21730;BME280;11027;51.030;13.812;2023-07-29T02:39:50;99528.81;;;20.22;82.62
21730;BME280;11027;51.030;13.812;2023-07-29T02:42:16;99520.78;;;20.21;82.69
21730;BME280;11027;51.030;13.812;2023-07-29T02:44:41;99524.63;;;20.19;82.63
21730;BME280;11027;51.030;13.812;2023-07-29T02:47:06;99526.31;;;20.21;83.19
21730;BME280;11027;51.030;13.812;2023-07-29T02:49:31;99523.78;;;20.19;83.29
21730;BME280;11027;51.030;13.812;2023-07-29T02:51:57;99534.03;;;20.18;83.33
21730;BME280;11027;51.030;13.812;2023-07-29T02:54:22;99540.13;;;20.21;83.25
21730;BME280;11027;51.030;13.812;2023-07-29T02:56:47;99540.38;;;20.19;83.48
21730;BME280;11027;51.030;13.812;2023-07-29T02:59:12;99543.41;;;20.17;83.53
21730;BME280;11027;51.030;13.812;2023-07-29T03:01:38;99550.03;;;20.16;83.81
21730;BME280;11027;51.030;13.812;2023-07-29T03:04:03;99545.09;;;20.18;83.49
21730;BME280;11027;51.030;13.812;2023-07-29T03:06:29;99551.19;;;20.21;83.73
21730;BME280;11027;51.030;13.812;2023-07-29T03:08:54;99547.88;;;20.24;83.48
21730;BME280;11027;51.030;13.812;2023-07-29T03:11:19;99556.75;;;20.26;83.24
21730;BME280;11027;51.030;13.812;2023-07-29T03:13:45;99547.38;;;20.27;83.87
21730;BME280;11027;51.030;13.812;2023-07-29T03:16:15;99552.38;;;20.30;83.48
21730;BME280;11027;51.030;13.812;2023-07-29T03:18:41;99558.50;;;20.32;83.38
21730;BME280;11027;51.030;13.812;2023-07-29T03:21:07;99557.41;;;20.33;83.38
21730;BME280;11027;51.030;13.812;2023-07-29T03:23:33;99551.38;;;20.36;83.28
21730;BME280;11027;51.030;13.812;2023-07-29T03:26:00;99552.44;;;20.35;83.49
21730;BME280;11027;51.030;13.812;2023-07-29T03:28:28;99558.56;;;20.37;83.23
21730;BME280;11027;51.030;13.812;2023-07-29T03:30:55;99548.31;;;20.37;83.06
21730;BME280;11027;51.030;13.812;2023-07-29T03:33:20;99551.41;;;20.41;83.22
21730;BME280;11027;51.030;13.812;2023-07-29T03:35:45;99551.16;;;20.43;82.84
21730;BME280;11027;51.030;13.812;2023-07-29T03:38:11;99547.28;;;20.44;82.90
21730;BME280;11027;51.030;13.812;2023-07-29T03:40:40;99551.97;;;20.43;83.03
21730;BME280;11027;51.030;13.812;2023-07-29T03:43:06;99539.25;;;20.42;82.84
21730;BME280;11027;51.030;13.812;2023-07-29T03:45:32;99537.59;;;20.41;82.41
21730;BME280;11027;51.030;13.812;2023-07-29T03:47:57;99543.94;;;20.42;82.30
21730;BME280;11027;51.030;13.812;2023-07-29T03:50:22;99535.38;;;20.43;82.35
21730;BME280;11027;51.030;13.812;2023-07-29T03:52:48;99528.19;;;20.42;82.45
21730;BME280;11027;51.030;13.812;2023-07-29T03:55:13;99524.88;;;20.40;81.93
21730;BME280;11027;51.030;13.812;2023-07-29T03:57:39;99531.00;;;20.47;81.36
21730;BME280;11027;51.030;13.812;2023-07-29T04:00:04;99537.69;;;20.51;81.22
21730;BME280;11027;51.030;13.812;2023-07-29T04:02:30;99538.50;;;20.52;80.97
21730;BME280;11027;51.030;13.812;2023-07-29T04:04:56;99542.72;;;20.54;80.87
21730;BME280;11027;51.030;13.812;2023-07-29T04:07:21;99542.16;;;20.57;80.79
21730;BME280;11027;51.030;13.812;2023-07-29T04:09:46;99534.22;;;20.61;81.13
21730;BME280;11027;51.030;13.812;2023-07-29T04:12:12;99526.22;;;20.65;81.13
21730;BME280;11027;51.030;13.812;2023-07-29T04:14:37;99532.66;;;20.70;81.00
21730;BME280;11027;51.030;13.812;2023-07-29T04:17:02;99524.63;;;20.74;81.09
21730;BME280;11027;51.030;13.812;2023-07-29T04:19:28;99531.59;;;20.76;80.97
21730;BME280;11027;51.030;13.812;2023-07-29T04:21:53;99535.22;;;20.82;81.03
21730;BME280;11027;51.030;13.812;2023-07-29T04:24:18;99539.13;;;20.86;80.96
21730;BME280;11027;51.030;13.812;2023-07-29T04:26:45;99539.19;;;20.91;80.72
21730;BME280;11027;51.030;13.812;2023-07-29T04:29:10;99539.75;;;20.93;80.71
21730;BME280;11027;51.030;13.812;2023-07-29T04:31:35;99543.91;;;20.96;80.43
21730;BME280;11027;51.030;13.812;2023-07-29T04:34:01;99536.44;;;20.96;80.18
21730;BME280;11027;51.030;13.812;2023-07-29T04:36:27;99538.38;;;20.96;80.32
21730;BME280;11027;51.030;13.812;2023-07-29T04:38:52;99543.09;;;20.95;80.63
21730;BME280;11027;51.030;13.812;2023-07-29T04:41:18;99541.97;;;20.91;80.85
21730;BME280;11027;51.030;13.812;2023-07-29T04:43:43;99540.28;;;20.90;80.56
21730;BME280;11027;51.030;13.812;2023-07-29T04:46:08;99541.38;;;20.89;80.72
21730;BME280;11027;51.030;13.812;2023-07-29T04:48:34;99539.44;;;20.90;80.20
21730;BME280;11027;51.030;13.812;2023-07-29T04:50:59;99540.84;;;20.92;80.31
21730;BME280;11027;51.030;13.812;2023-07-29T04:53:24;99543.09;;;20.95;79.95
21730;BME280;11027;51.030;13.812;2023-07-29T04:55:50;99534.84;;;21.01;80.11
21730;BME280;11027;51.030;13.812;2023-07-29T04:58:15;99528.75;;;21.04;79.95
21730;BME280;11027;51.030;13.812;2023-07-29T05:00:40;99538.78;;;21.10;79.73
21730;BME280;11027;51.030;13.812;2023-07-29T05:03:06;99527.69;;;21.10;79.68
21730;BME280;11027;51.030;13.812;2023-07-29T05:05:31;99534.38;;;21.14;79.57
21730;BME280;11027;51.030;13.812;2023-07-29T05:07:57;99529.97;;;21.18;79.44
21730;BME280;11027;51.030;13.812;2023-07-29T05:10:22;99535.50;;;21.18;79.29
21730;BME280;11027;51.030;13.812;2023-07-29T05:12:47;99526.13;;;21.19;79.13
21730;BME280;11027;51.030;13.812;2023-07-29T05:15:13;99535.00;;;21.21;79.20
21730;BME280;11027;51.030;13.812;2023-07-29T05:17:38;99529.44;;;21.21;79.15
21730;BME280;11027;51.030;13.812;2023-07-29T05:20:03;99527.50;;;21.22;79.03
21730;BME280;11027;51.030;13.812;2023-07-29T05:22:29;99530.59;;;21.25;79.31
21730;BME280;11027;51.030;13.812;2023-07-29T05:24:54;99538.09;;;21.30;79.29
21730;BME280;11027;51.030;13.812;2023-07-29T05:27:19;99530.66;;;21.35;79.18
21730;BME280;11027;51.030;13.812;2023-07-29T05:29:45;99525.72;;;21.43;79.15
21730;BME280;11027;51.030;13.812;2023-07-29T05:32:10;99521.06;;;21.48;78.70
21730;BME280;11027;51.030;13.812;2023-07-29T05:34:35;99518.88;;;21.55;78.61
21730;BME280;11027;51.030;13.812;2023-07-29T05:37:01;99518.09;;;21.65;78.23
21730;BME280;11027;51.030;13.812;2023-07-29T05:39:26;99513.72;;;21.74;77.94
21730;BME280;11027;51.030;13.812;2023-07-29T05:41:51;99513.19;;;21.83;77.68
21730;BME280;11027;51.030;13.812;2023-07-29T05:44:16;99508.75;;;21.87;77.66
21730;BME280;11027;51.030;13.812;2023-07-29T05:46:42;99514.91;;;21.94;77.31
21730;BME280;11027;51.030;13.812;2023-07-29T05:49:07;99513.81;;;22.00;77.11
21730;BME280;11027;51.030;13.812;2023-07-29T05:51:32;99516.59;;;22.05;77.12
21730;BME280;11027;51.030;13.812;2023-07-29T05:53:57;99512.72;;;22.06;76.88
21730;BME280;11027;51.030;13.812;2023-07-29T05:56:23;99509.41;;;22.09;76.65
21730;BME280;11027;51.030;13.812;2023-07-29T05:58:48;99500.28;;;22.14;76.46
21730;BME280;11027;51.030;13.812;2023-07-29T06:01:13;99497.50;;;22.19;76.32
21730;BME280;11027;51.030;13.812;2023-07-29T06:03:38;99491.16;;;22.24;76.18
21730;BME280;11027;51.030;13.812;2023-07-29T06:06:04;99491.44;;;22.27;76.10
21730;BME280;11027;51.030;13.812;2023-07-29T06:08:29;99492.25;;;22.28;75.79
21730;BME280;11027;51.030;13.812;2023-07-29T06:10:54;99486.19;;;22.31;75.73
21730;BME280;11027;51.030;13.812;2023-07-29T06:13:20;99483.44;;;22.36;75.80
21730;BME280;11027;51.030;13.812;2023-07-29T06:15:45;99485.63;;;22.39;75.68
21730;BME280;11027;51.030;13.812;2023-07-29T06:18:10;99480.66;;;22.41;75.87
21730;BME280;11027;51.030;13.812;2023-07-29T06:20:35;99479.00;;;22.40;75.71
21730;BME280;11027;51.030;13.812;2023-07-29T06:23:01;99481.22;;;22.38;75.69
21730;BME280;11027;51.030;13.812;2023-07-29T06:25:27;99486.19;;;22.41;75.45
21730;BME280;11027;51.030;13.812;2023-07-29T06:27:52;99488.44;;;22.49;75.42
21730;BME280;11027;51.030;13.812;2023-07-29T06:30:17;99491.22;;;22.60;74.96
21730;BME280;11027;51.030;13.812;2023-07-29T06:32:42;99497.34;;;22.67;74.68
21730;BME280;11027;51.030;13.812;2023-07-29T06:35:08;99491.75;;;22.72;74.49
21730;BME280;11027;51.030;13.812;2023-07-29T06:37:33;99485.66;;;22.75;74.27
21730;BME280;11027;51.030;13.812;2023-07-29T06:39:58;99484.56;;;22.81;74.22
21730;BME280;11027;51.030;13.812;2023-07-29T06:42:24;99491.78;;;22.87;74.18
21730;BME280;11027;51.030;13.812;2023-07-29T06:44:49;99487.88;;;22.93;73.89
21730;BME280;11027;51.030;13.812;2023-07-29T06:47:15;99495.69;;;23.02;72.74
21730;BME280;11027;51.030;13.812;2023-07-29T06:49:41;99509.00;;;23.10;71.53
21730;BME280;11027;51.030;13.812;2023-07-29T06:52:06;99501.78;;;23.14;69.53
21730;BME280;11027;51.030;13.812;2023-07-29T06:54:31;99503.44;;;23.15;68.33
21730;BME280;11027;51.030;13.812;2023-07-29T06:56:57;99491.78;;;23.13;67.19
21730;BME280;11027;51.030;13.812;2023-07-29T06:59:22;99499.81;;;23.14;66.99
21730;BME280;11027;51.030;13.812;2023-07-29T07:01:49;99490.66;;;23.19;66.66
21730;BME280;11027;51.030;13.812;2023-07-29T07:04:14;99495.09;;;23.25;66.78
21730;BME280;11027;51.030;13.812;2023-07-29T07:06:40;99497.28;;;23.28;66.55
21730;BME280;11027;51.030;13.812;2023-07-29T07:09:05;99487.56;;;23.36;66.56
21730;BME280;11027;51.030;13.812;2023-07-29T07:11:30;99494.75;;;23.42;66.28
21730;BME280;11027;51.030;13.812;2023-07-29T07:13:55;99483.94;;;23.46;66.02
21730;BME280;11027;51.030;13.812;2023-07-29T07:16:21;99496.97;;;23.50;65.42
21730;BME280;11027;51.030;13.812;2023-07-29T07:18:46;99490.56;;;23.55;65.18
21730;BME280;11027;51.030;13.812;2023-07-29T07:21:11;99478.34;;;23.56;64.77
21730;BME280;11027;51.030;13.812;2023-07-29T07:23:38;99479.44;;;23.60;64.54
21730;BME280;11027;51.030;13.812;2023-07-29T07:26:04;99476.63;;;23.65;64.58
21730;BME280;11027;51.030;13.812;2023-07-29T07:28:29;99474.41;;;23.67;63.86
21730;BME280;11027;51.030;13.812;2023-07-29T07:30:54;99468.31;;;23.65;63.75
21730;BME280;11027;51.030;13.812;2023-07-29T07:33:21;99462.19;;;23.63;63.70
21730;BME280;11027;51.030;13.812;2023-07-29T07:35:46;99456.06;;;23.61;63.68
21730;BME280;11027;51.030;13.812;2023-07-29T07:38:12;99446.63;;;23.62;63.43
21730;BME280;11027;51.030;13.812;2023-07-29T07:40:37;99454.41;;;23.65;63.48
21730;BME280;11027;51.030;13.812;2023-07-29T07:43:02;99449.94;;;23.69;61.98
21730;BME280;11027;51.030;13.812;2023-07-29T07:45:27;99446.00;;;23.75;61.54
21730;BME280;11027;51.030;13.812;2023-07-29T07:47:53;99431.00;;;23.82;61.40
21730;BME280;11027;51.030;13.812;2023-07-29T07:50:19;99438.47;;;23.86;60.09
21730;BME280;11027;51.030;13.812;2023-07-29T07:52:45;99442.34;;;23.85;59.63
21730;BME280;11027;51.030;13.812;2023-07-29T07:55:10;99433.19;;;23.85;59.18
21730;BME280;11027;51.030;13.812;2023-07-29T07:57:36;99431.50;;;23.89;58.86
21730;BME280;11027;51.030;13.812;2023-07-29T08:00:01;99429.25;;;23.91;58.71
21730;BME280;11027;51.030;13.812;2023-07-29T08:02:26;99421.44;;;23.93;59.45
21730;BME280;11027;51.030;13.812;2023-07-29T08:04:51;99421.44;;;23.93;59.58
21730;BME280;11027;51.030;13.812;2023-07-29T08:07:17;99421.44;;;23.93;59.37
21730;BME280;11027;51.030;13.812;2023-07-29T08:09:42;99413.38;;;23.91;59.13
21730;BME280;11027;51.030;13.812;2023-07-29T08:12:07;99419.22;;;23.95;58.95
21730;BME280;11027;51.030;13.812;2023-07-29T08:14:33;99421.38;;;24.03;58.95
21730;BME280;11027;51.030;13.812;2023-07-29T08:16:58;99412.69;;;24.15;58.65
21730;BME280;11027;51.030;13.812;2023-07-29T08:19:23;99410.63;;;24.31;58.17
21730;BME280;11027;51.030;13.812;2023-07-29T08:21:48;99411.88;;;24.49;57.98
21730;BME280;11027;51.030;13.812;2023-07-29T08:24:14;99412.09;;;24.63;57.47
21730;BME280;11027;51.030;13.812;2023-07-29T08:26:39;99411.38;;;24.76;57.16
21730;BME280;11027;51.030;13.812;2023-07-29T08:29:04;99413.53;;;24.84;56.08
21730;BME280;11027;51.030;13.812;2023-07-29T08:31:30;99410.09;;;24.92;55.42
21730;BME280;11027;51.030;13.812;2023-07-29T08:33:58;99410.59;;;25.00;55.08
21730;BME280;11027;51.030;13.812;2023-07-29T08:36:23;99412.03;;;24.97;54.79
21730;BME280;11027;51.030;13.812;2023-07-29T08:38:49;99417.34;;;24.93;54.39
21730;BME280;11027;51.030;13.812;2023-07-29T08:41:19;99411.78;;;24.93;55.02
21730;BME280;11027;51.030;13.812;2023-07-29T08:46:29;99416.72;;;25.02;54.90
21730;BME280;11027;51.030;13.812;2023-07-29T08:48:55;99414.47;;;25.04;54.49
21730;BME280;11027;51.030;13.812;2023-07-29T08:51:24;99417.53;;;25.02;54.67
21730;BME280;11027;51.030;13.812;2023-07-29T08:53:51;99412.28;;;25.01;55.08
21730;BME280;11027;51.030;13.812;2023-07-29T08:56:18;99412.84;;;24.98;55.19
21730;BME280;11027;51.030;13.812;2023-07-29T08:58:43;99422.25;;;25.07;54.96
21730;BME280;11027;51.030;13.812;2023-07-29T09:01:09;99414.28;;;25.19;54.33
21730;BME280;11027;51.030;13.812;2023-07-29T09:03:34;99413.59;;;25.32;53.77
21730;BME280;11027;51.030;13.812;2023-07-29T09:06:01;99415.41;;;25.47;53.33
21730;BME280;11027;51.030;13.812;2023-07-29T09:08:27;99406.19;;;25.47;53.16
21730;BME280;11027;51.030;13.812;2023-07-29T09:10:53;99404.03;;;25.39;53.74
21730;BME280;11027;51.030;13.812;2023-07-29T09:13:19;99411.97;;;25.31;53.85
21730;BME280;11027;51.030;13.812;2023-07-29T09:15:45;99411.44;;;25.29;54.12
21730;BME280;11027;51.030;13.812;2023-07-29T09:18:18;99409.69;;;25.33;54.62
21730;BME280;11027;51.030;13.812;2023-07-29T09:20:47;99412.41;;;25.39;54.55
21730;BME280;11027;51.030;13.812;2023-07-29T09:23:13;99419.06;;;25.43;54.83
21730;BME280;11027;51.030;13.812;2023-07-29T09:25:39;99413.72;;;25.46;54.56
21730;BME280;11027;51.030;13.812;2023-07-29T09:28:09;99411.09;;;25.55;54.54
21730;BME280;11027;51.030;13.812;2023-07-29T09:30:36;99403.97;;;25.68;54.31
21730;BME280;11027;51.030;13.812;2023-07-29T09:33:01;99393.50;;;25.79;53.86
21730;BME280;11027;51.030;13.812;2023-07-29T09:35:32;99407.28;;;25.94;53.96
21730;BME280;11027;51.030;13.812;2023-07-29T09:37:57;99400.31;;;26.10;53.46
21730;BME280;11027;51.030;13.812;2023-07-29T09:40:23;99394.28;;;26.22;53.10
21730;BME280;11027;51.030;13.812;2023-07-29T09:42:54;99399.41;;;26.34;53.44
21730;BME280;11027;51.030;13.812;2023-07-29T09:45:25;99390.41;;;26.37;53.03
21730;BME280;11027;51.030;13.812;2023-07-29T09:47:52;99395.47;;;26.35;52.36
21730;BME280;11027;51.030;13.812;2023-07-29T09:50:17;99389.44;;;26.28;52.56
21730;BME280;11027;51.030;13.812;2023-07-29T09:52:44;99393.22;;;26.18;52.67
21730;BME280;11027;51.030;13.812;2023-07-29T09:55:13;99391.47;;;26.03;52.80
21730;BME280;11027;51.030;13.812;2023-07-29T09:57:40;99395.03;;;25.90;52.99
21730;BME280;11027;51.030;13.812;2023-07-29T10:00:06;99386.28;;;25.78;53.36
21730;BME280;11027;51.030;13.812;2023-07-29T10:02:42;99384.16;;;25.69;53.37
21730;BME280;11027;51.030;13.812;2023-07-29T10:05:09;99383.16;;;25.60;54.02
21730;BME280;11027;51.030;13.812;2023-07-29T10:07:36;99390.59;;;25.46;54.29
21730;BME280;11027;51.030;13.812;2023-07-29T10:10:04;99424.28;;;25.25;55.53
21730;BME280;11027;51.030;13.812;2023-07-29T10:12:31;99426.81;;;24.92;58.75
21730;BME280;11027;51.030;13.812;2023-07-29T10:14:59;99417.19;;;24.50;60.84
21730;BME280;11027;51.030;13.812;2023-07-29T10:17:26;99424.63;;;24.21;63.07
21730;BME280;11027;51.030;13.812;2023-07-29T10:19:51;99420.34;;;23.94;65.47
21730;BME280;11027;51.030;13.812;2023-07-29T10:22:20;99414.88;;;23.79;66.99
21730;BME280;11027;51.030;13.812;2023-07-29T10:24:46;99414.06;;;23.68;68.20
21730;BME280;11027;51.030;13.812;2023-07-29T10:27:15;99389.84;;;23.79;69.07
21730;BME280;11027;51.030;13.812;2023-07-29T10:29:44;99387.03;;;23.84;68.57
21730;BME280;11027;51.030;13.812;2023-07-29T10:32:11;99389.94;;;24.08;67.84
21730;BME280;11027;51.030;13.812;2023-07-29T10:34:40;99386.38;;;24.36;66.99
21730;BME280;11027;51.030;13.812;2023-07-29T10:37:07;99378.91;;;24.66;66.15
21730;BME280;11027;51.030;13.812;2023-07-29T10:39:40;99383.91;;;24.93;64.81
21730;BME280;11027;51.030;13.812;2023-07-29T10:42:06;99388.91;;;25.21;63.63
21730;BME280;11027;51.030;13.812;2023-07-29T10:47:21;99395.41;;;25.59;62.18
21730;BME280;11027;51.030;13.812;2023-07-29T10:49:52;99385.13;;;25.79;61.66
21730;BME280;11027;51.030;13.812;2023-07-29T10:55:00;99381.63;;;25.92;60.87
21730;BME280;11027;51.030;13.812;2023-07-29T10:57:37;99382.94;;;25.75;61.35
21730;BME280;11027;51.030;13.812;2023-07-29T11:00:04;99378.69;;;25.59;61.81
21730;BME280;11027;51.030;13.812;2023-07-29T11:02:35;99378.28;;;25.47;62.33
21730;BME280;11027;51.030;13.812;2023-07-29T11:05:27;99379.50;;;25.41;62.98
21730;BME280;11027;51.030;13.812;2023-07-29T11:08:16;99377.75;;;25.45;63.57
21730;BME280;11027;51.030;13.812;2023-07-29T11:10:43;99371.47;;;25.58;63.72
21730;BME280;11027;51.030;13.812;2023-07-29T11:13:10;99377.72;;;25.69;63.09
21730;BME280;11027;51.030;13.812;2023-07-29T11:15:38;99372.91;;;25.74;61.11
21730;BME280;11027;51.030;13.812;2023-07-29T11:18:04;99366.22;;;25.75;60.28
21730;BME280;11027;51.030;13.812;2023-07-29T11:20:33;99358.91;;;25.80;59.73
21730;BME280;11027;51.030;13.812;2023-07-29T11:23:00;99367.69;;;25.92;59.05
21730;BME280;11027;51.030;13.812;2023-07-29T11:25:27;99375.44;;;25.95;58.27
21730;BME280;11027;51.030;13.812;2023-07-29T11:27:54;99367.72;;;25.87;59.06
21730;BME280;11027;51.030;13.812;2023-07-29T11:30:19;99363.47;;;25.70;58.87
21730;BME280;11027;51.030;13.812;2023-07-29T11:32:46;99374.53;;;25.57;58.64
21730;BME280;11027;51.030;13.812;2023-07-29T11:35:14;99376.66;;;25.46;58.92
21730;BME280;11027;51.030;13.812;2023-07-29T11:37:40;99370.00;;;25.42;58.77
21730;BME280;11027;51.030;13.812;2023-07-29T11:40:07;99373.03;;;25.45;58.81
21730;BME280;11027;51.030;13.812;2023-07-29T11:42:36;99372.66;;;25.52;58.90
21730;BME280;11027;51.030;13.812;2023-07-29T11:45:02;99370.94;;;25.56;59.07
21730;BME280;11027;51.030;13.812;2023-07-29T11:47:29;99367.09;;;25.52;58.55
21730;BME280;11027;51.030;13.812;2023-07-29T11:49:58;99362.63;;;25.51;58.73
21730;BME280;11027;51.030;13.812;2023-07-29T11:52:24;99362.63;;;25.51;59.20
21730;BME280;11027;51.030;13.812;2023-07-29T11:54:49;99362.72;;;25.46;59.46
21730;BME280;11027;51.030;13.812;2023-07-29T11:57:16;99354.41;;;25.41;59.65
21730;BME280;11027;51.030;13.812;2023-07-29T11:59:42;99356.13;;;25.37;59.49
21730;BME280;11027;51.030;13.812;2023-07-29T12:02:15;99350.03;;;25.34;59.76
21730;BME280;11027;51.030;13.812;2023-07-29T12:04:42;99352.28;;;25.32;59.52
21730;BME280;11027;51.030;13.812;2023-07-29T12:07:08;99342.81;;;25.33;59.81
21730;BME280;11027;51.030;13.812;2023-07-29T12:09:34;99349.44;;;25.38;59.60
21730;BME280;11027;51.030;13.812;2023-07-29T12:12:01;99344.31;;;25.45;59.86
21730;BME280;11027;51.030;13.812;2023-07-29T12:14:28;99337.53;;;25.51;60.04
21730;BME280;11027;51.030;13.812;2023-07-29T12:16:53;99343.59;;;25.58;59.89
21730;BME280;11027;51.030;13.812;2023-07-29T12:19:19;99333.09;;;25.69;59.98
21730;BME280;11027;51.030;13.812;2023-07-29T12:21:44;99332.75;;;25.75;59.57
21730;BME280;11027;51.030;13.812;2023-07-29T12:24:12;99338.16;;;25.86;59.25
21730;BME280;11027;51.030;13.812;2023-07-29T12:26:37;99334.63;;;25.99;59.52
21730;BME280;11027;51.030;13.812;2023-07-29T12:29:13;99327.84;;;26.05;58.76
21730;BME280;11027;51.030;13.812;2023-07-29T12:31:38;99326.72;;;26.06;56.42
21730;BME280;11027;51.030;13.812;2023-07-29T12:34:04;99321.66;;;26.08;56.44
21730;BME280;11027;51.030;13.812;2023-07-29T12:36:47;99321.56;;;26.13;56.29
21730;BME280;11027;51.030;13.812;2023-07-29T12:39:23;99323.41;;;26.04;56.51
21730;BME280;11027;51.030;13.812;2023-07-29T12:41:51;99320.69;;;25.99;55.59
21730;BME280;11027;51.030;13.812;2023-07-29T12:44:16;99317.19;;;26.07;54.63
21730;BME280;11027;51.030;13.812;2023-07-29T12:46:42;99315.06;;;26.18;53.46
21730;BME280;11027;51.030;13.812;2023-07-29T12:49:08;99315.03;;;26.37;52.93
21730;BME280;11027;51.030;13.812;2023-07-29T12:51:33;99317.47;;;26.58;52.44
21730;BME280;11027;51.030;13.812;2023-07-29T12:54:00;99315.53;;;26.72;52.21
21730;BME280;11027;51.030;13.812;2023-07-29T12:56:25;99323.63;;;26.87;51.79